Time;durP1;ratioP1;P1;durP2;ratioP2;P2;SDS_P1;SDS_P2;PMS_P1;PMS_P2;Temp;Humidity;BMP_temperature;BMP_pressure;BME280_temperature;BME280_humidity;BME280_pressure;Samples;Min_cycle;Max_cycle;Signal;HPM_P1;HPM_P2
2021/12/19 00:00:34;;;;;;;0.60;0.60;;;7.00;99.90;;;;;;5046856;28;20067;-88
2021/12/19 00:08:50;;;;;;;0.82;0.82;;;7.00;99.90;;;;;;5069520;28;20142;-89
2021/12/19 00:11:26;;;;;;;0.90;0.90;;;7.00;99.90;;;;;;5063524;28;20040;-89
2021/12/19 00:13:52;;;;;;;0.70;0.70;;;7.00;99.90;;;;;;5051207;28;20092;-89
2021/12/19 00:16:19;;;;;;;0.80;0.80;;;7.00;99.90;;;;;;5054166;28;20047;-89
2021/12/19 00:18:46;;;;;;;5.43;1.08;;;7.10;99.90;;;;;;5061097;28;20032;-87
2021/12/19 00:21:17;;;;;;;0.70;0.70;;;7.10;99.90;;;;;;5066772;28;20052;-88
2021/12/19 00:23:45;;;;;;;0.90;0.90;;;7.10;99.90;;;;;;5052653;28;20082;-87
2021/12/19 00:26:12;;;;;;;0.85;0.80;;;7.10;99.90;;;;;;5055051;28;20032;-89
2021/12/19 00:28:38;;;;;;;0.60;0.60;;;7.10;99.90;;;;;;5050312;28;20047;-88
2021/12/19 00:31:04;;;;;;;0.80;0.80;;;7.10;99.90;;;;;;5051826;28;20036;-89
2021/12/19 00:33:30;;;;;;;0.80;0.80;;;7.00;99.90;;;;;;5049640;28;20041;-88
2021/12/19 00:35:56;;;;;;;0.65;0.65;;;7.10;99.90;;;;;;5055213;28;20040;-89
2021/12/19 00:38:22;;;;;;;0.60;0.60;;;7.00;99.90;;;;;;5051029;28;20044;-89
2021/12/19 00:40:48;;;;;;;0.60;0.60;;;7.10;99.90;;;;;;5058268;28;20052;-90
2021/12/19 00:43:24;;;;;;;0.60;0.60;;;7.10;99.90;;;;;;5040724;28;20029;-89
2021/12/19 00:45:52;;;;;;;0.90;0.90;;;7.00;99.90;;;;;;5051692;28;20048;-88
2021/12/19 00:48:17;;;;;;;0.60;0.60;;;7.00;99.90;;;;;;5049702;28;20097;-88
2021/12/19 00:50:43;;;;;;;0.82;0.82;;;7.00;99.90;;;;;;5082706;28;20045;-88
2021/12/19 00:53:12;;;;;;;0.80;0.80;;;7.00;99.90;;;;;;5046218;28;20052;-88
2021/12/19 00:55:38;;;;;;;0.52;0.52;;;7.00;99.90;;;;;;5070667;28;20028;-88
2021/12/19 00:58:04;;;;;;;0.63;0.63;;;7.00;99.90;;;;;;5048620;28;20044;-88
2021/12/19 01:00:33;;;;;;;0.70;0.70;;;7.00;99.90;;;;;;5055700;28;20044;-88
2021/12/19 01:03:00;;;;;;;0.60;0.60;;;7.00;99.90;;;;;;5066920;28;20048;-88
2021/12/19 01:05:28;;;;;;;0.50;0.50;;;7.00;99.90;;;;;;5049585;28;20128;-88
2021/12/19 01:07:55;;;;;;;0.60;0.60;;;7.00;99.90;;;;;;5043413;28;21374;-89
2021/12/19 01:10:21;;;;;;;0.60;0.60;;;7.00;99.90;;;;;;5055528;28;20075;-89
2021/12/19 01:12:46;;;;;;;0.60;0.60;;;7.00;99.90;;;;;;5054210;28;20134;-89
2021/12/19 01:15:15;;;;;;;0.60;0.60;;;6.90;99.90;;;;;;5066496;28;20118;-89
2021/12/19 01:17:41;;;;;;;0.60;0.60;;;6.90;99.90;;;;;;5049071;28;20136;-88
2021/12/19 01:20:14;;;;;;;0.60;0.60;;;6.80;99.90;;;;;;5050250;28;20132;-89
2021/12/19 01:22:41;;;;;;;0.60;0.60;;;6.80;99.90;;;;;;5051361;28;20085;-89
2021/12/19 01:25:07;;;;;;;0.60;0.60;;;6.80;99.90;;;;;;5045792;28;20041;-89
2021/12/19 01:27:33;;;;;;;0.68;0.68;;;6.80;99.90;;;;;;5055255;28;20049;-89
2021/12/19 01:29:58;;;;;;;0.60;0.60;;;6.90;99.90;;;;;;5052492;28;20039;-89
2021/12/19 01:32:24;;;;;;;0.60;0.60;;;6.80;99.90;;;;;;5065695;28;20051;-87
2021/12/19 01:34:50;;;;;;;0.70;0.70;;;6.80;99.90;;;;;;5043571;28;20045;-89
2021/12/19 01:37:15;;;;;;;0.60;0.60;;;6.80;99.90;;;;;;5050434;28;20032;-89
2021/12/19 01:39:41;;;;;;;0.60;0.60;;;6.80;99.90;;;;;;5048119;28;20048;-90
2021/12/19 01:42:11;;;;;;;0.70;0.70;;;6.90;99.90;;;;;;5065489;28;20104;-90
2021/12/19 01:44:37;;;;;;;0.60;0.60;;;6.80;99.90;;;;;;5045134;28;20049;-89
2021/12/19 01:47:03;;;;;;;0.60;0.60;;;6.80;99.90;;;;;;5046406;28;20153;-88
2021/12/19 01:49:29;;;;;;;0.50;0.50;;;6.80;99.90;;;;;;5049611;28;20044;-88
2021/12/19 01:51:54;;;;;;;0.60;0.60;;;6.80;99.90;;;;;;5050838;28;20109;-89
2021/12/19 01:54:20;;;;;;;0.60;0.60;;;6.80;99.90;;;;;;5047907;28;20135;-89
2021/12/19 01:56:46;;;;;;;0.60;0.60;;;6.80;99.90;;;;;;5060743;28;20044;-89
2021/12/19 01:59:12;;;;;;;0.70;0.70;;;6.80;99.90;;;;;;5065484;28;20057;-90
2021/12/19 02:01:57;;;;;;;0.60;0.60;;;6.80;99.90;;;;;;5072261;28;20415;-89
2021/12/19 02:04:23;;;;;;;0.70;0.70;;;6.80;99.90;;;;;;5064111;28;20166;-90
2021/12/19 02:06:50;;;;;;;0.60;0.60;;;6.80;99.90;;;;;;5047884;28;20041;-89
2021/12/19 02:09:17;;;;;;;0.60;0.60;;;6.80;99.90;;;;;;5045495;28;20628;-90
2021/12/19 02:11:42;;;;;;;0.60;0.60;;;6.80;99.90;;;;;;5034887;28;20100;-90
2021/12/19 02:14:10;;;;;;;0.70;0.70;;;6.80;99.90;;;;;;5058547;28;20036;-89
2021/12/19 02:16:37;;;;;;;2.67;1.33;;;6.80;99.90;;;;;;5048407;28;20082;-89
2021/12/19 02:19:05;;;;;;;0.98;0.82;;;6.80;99.90;;;;;;5047567;28;20337;-90
2021/12/19 02:21:30;;;;;;;0.60;0.60;;;6.80;99.90;;;;;;5047238;28;20058;-89
2021/12/19 02:23:57;;;;;;;0.60;0.60;;;6.80;99.90;;;;;;5046637;28;20037;-88
2021/12/19 02:26:24;;;;;;;0.68;0.68;;;6.90;99.90;;;;;;5070250;28;20090;-89
2021/12/19 02:28:49;;;;;;;0.60;0.60;;;6.80;99.90;;;;;;5041331;28;20056;-89
2021/12/19 02:31:15;;;;;;;0.60;0.60;;;6.80;99.90;;;;;;5042324;28;20040;-89
2021/12/19 02:33:44;;;;;;;0.60;0.60;;;6.70;99.90;;;;;;5046769;28;20120;-90
2021/12/19 02:49:40;;;;;;;0.60;0.60;;;6.80;99.90;;;;;;5064573;28;20052;-88
2021/12/19 02:52:15;;;;;;;0.60;0.60;;;6.60;99.90;;;;;;5047344;28;20054;-88
2021/12/19 02:54:41;;;;;;;0.60;0.60;;;6.60;99.90;;;;;;5073411;28;20064;-89
2021/12/19 02:57:06;;;;;;;0.60;0.60;;;6.60;99.90;;;;;;5044922;28;20041;-89
2021/12/19 02:59:32;;;;;;;0.60;0.60;;;6.60;99.90;;;;;;5050237;28;20412;-89
2021/12/19 03:01:58;;;;;;;0.60;0.60;;;6.60;99.90;;;;;;5046479;28;20071;-89
2021/12/19 03:04:24;;;;;;;0.60;0.60;;;6.60;99.90;;;;;;5068243;28;20039;-90
2021/12/19 03:06:50;;;;;;;0.60;0.60;;;6.50;99.90;;;;;;5073625;28;20117;-89
2021/12/19 03:09:35;;;;;;;0.60;0.60;;;6.50;99.90;;;;;;5065377;28;20044;-88
2021/12/19 03:12:10;;;;;;;0.60;0.60;;;6.50;99.90;;;;;;5072552;28;20075;-89
2021/12/19 03:20:10;;;;;;;;;;;6.50;99.90;;;;;;5066326;28;20108;-90
2021/12/19 03:22:36;;;;;;;0.70;0.70;;;6.50;99.90;;;;;;5055567;28;19979;-88
2021/12/19 03:25:01;;;;;;;0.60;0.60;;;6.50;99.90;;;;;;5049592;28;20060;-89
2021/12/19 03:27:27;;;;;;;0.60;0.60;;;6.40;99.90;;;;;;5046818;28;20059;-89
2021/12/19 03:29:52;;;;;;;0.60;0.60;;;6.40;99.90;;;;;;5055397;28;20444;-89
2021/12/19 03:32:18;;;;;;;0.60;0.60;;;6.40;99.90;;;;;;5070148;28;20056;-89
2021/12/19 03:34:44;;;;;;;0.60;0.60;;;6.40;99.90;;;;;;5039141;28;20048;-89
2021/12/19 03:37:09;;;;;;;0.70;0.70;;;6.40;99.90;;;;;;5039718;28;20121;-89
2021/12/19 03:39:55;;;;;;;4.45;1.13;;;6.40;99.90;;;;;;5074831;28;20041;-90
2021/12/19 03:42:22;;;;;;;0.63;0.63;;;6.40;99.90;;;;;;5048279;28;20045;-88
2021/12/19 03:44:47;;;;;;;0.60;0.60;;;6.40;99.90;;;;;;5055979;28;20135;-87
2021/12/19 03:47:13;;;;;;;0.60;0.60;;;6.40;99.90;;;;;;5050072;28;20508;-89
2021/12/19 03:49:38;;;;;;;0.60;0.60;;;6.40;99.90;;;;;;5049735;28;20166;-90
2021/12/19 03:52:04;;;;;;;0.60;0.60;;;6.40;99.90;;;;;;5059837;28;20646;-89
2021/12/19 03:54:29;;;;;;;0.60;0.60;;;6.50;99.90;;;;;;5048978;28;20071;-89
2021/12/19 03:56:55;;;;;;;0.50;0.50;;;6.50;99.90;;;;;;5051127;28;20099;-89
2021/12/19 03:59:20;;;;;;;0.68;0.68;;;6.50;99.90;;;;;;5049396;28;20044;-89
2021/12/19 04:01:50;;;;;;;0.60;0.60;;;6.50;99.90;;;;;;5056366;28;20090;-89
2021/12/19 04:04:16;;;;;;;0.70;0.70;;;6.40;99.90;;;;;;5055813;28;20036;-88
2021/12/19 04:06:41;;;;;;;0.50;0.50;;;6.40;99.90;;;;;;5050816;28;20048;-89
2021/12/19 04:09:07;;;;;;;0.50;0.50;;;6.40;99.90;;;;;;5065396;28;20040;-89
2021/12/19 04:11:33;;;;;;;0.50;0.50;;;6.40;99.90;;;;;;5037104;28;20092;-89
2021/12/19 04:13:58;;;;;;;0.60;0.60;;;6.50;99.90;;;;;;5049847;28;20032;-88
2021/12/19 04:16:24;;;;;;;0.60;0.60;;;6.50;99.90;;;;;;5050978;28;20041;-89
2021/12/19 04:18:49;;;;;;;0.65;0.65;;;6.40;99.90;;;;;;5056566;28;20115;-89
2021/12/19 04:21:15;;;;;;;0.60;0.60;;;6.40;99.90;;;;;;5073010;28;20051;-88
2021/12/19 04:23:41;;;;;;;0.57;0.57;;;6.50;99.90;;;;;;5052844;28;20036;-88
2021/12/19 04:26:06;;;;;;;0.60;0.60;;;6.50;99.90;;;;;;5066945;28;20045;-88
2021/12/19 04:28:32;;;;;;;0.60;0.60;;;6.50;99.90;;;;;;5051081;28;20037;-88
2021/12/19 04:31:00;;;;;;;0.60;0.60;;;6.50;99.90;;;;;;5048832;28;20104;-88
2021/12/19 04:33:27;;;;;;;0.70;0.70;;;6.50;99.90;;;;;;5068117;28;20052;-88
2021/12/19 04:35:59;;;;;;;0.50;0.50;;;6.50;99.90;;;;;;5055235;28;20476;-89
2021/12/19 04:41:47;;;;;;;2.25;2.05;;;6.50;99.90;;;;;;5064316;28;20049;-89
2021/12/19 04:52:40;;;;;;;0.65;0.65;;;6.50;99.90;;;;;;5079595;28;20048;-88
2021/12/19 04:55:15;;;;;;;0.60;0.60;;;6.60;99.90;;;;;;5065942;28;20408;-89
2021/12/19 04:58:03;;;;;;;0.60;0.60;;;6.60;99.90;;;;;;5065350;28;20054;-89
2021/12/19 05:00:41;;;;;;;0.60;0.60;;;6.60;99.90;;;;;;5069613;28;20080;-89
2021/12/19 05:03:19;;;;;;;0.60;0.60;;;6.60;99.90;;;;;;5069161;28;20044;-89
2021/12/19 05:06:00;;;;;;;0.60;0.60;;;6.60;99.90;;;;;;5069096;28;20036;-89
2021/12/19 05:16:29;;;;;;;0.80;0.80;;;6.60;99.90;;;;;;5059806;28;20054;-89
2021/12/19 05:19:02;;;;;;;0.60;0.60;;;6.60;99.90;;;;;;5059880;28;20052;-89
2021/12/19 05:21:29;;;;;;;0.63;0.63;;;6.60;99.90;;;;;;5055682;28;20048;-89
2021/12/19 05:26:23;;;;;;;1.73;1.17;;;6.60;99.90;;;;;;5057684;28;20052;-89
2021/12/19 05:28:52;;;;;;;0.70;0.70;;;6.60;99.90;;;;;;5051139;28;20143;-88
2021/12/19 05:31:18;;;;;;;0.65;0.65;;;6.60;99.90;;;;;;5054513;28;20051;-89
2021/12/19 05:33:45;;;;;;;0.70;0.70;;;6.60;99.90;;;;;;5048972;28;20047;-88
2021/12/19 05:46:59;;;;;;;0.57;0.57;;;6.60;99.90;;;;;;5066501;28;20044;-88
2021/12/19 05:49:25;;;;;;;0.77;0.77;;;6.60;99.90;;;;;;5055213;28;20350;-89
2021/12/19 05:51:50;;;;;;;1.15;0.77;;;6.60;99.90;;;;;;5052092;28;20394;-89
2021/12/19 05:54:16;;;;;;;0.80;0.80;;;6.60;99.90;;;;;;5067027;28;20028;-89
2021/12/19 05:56:43;;;;;;;0.63;0.63;;;6.60;99.90;;;;;;5051671;28;20044;-89
2021/12/19 05:59:09;;;;;;;0.85;0.70;;;6.60;99.90;;;;;;5046219;28;20292;-89
2021/12/19 06:01:35;;;;;;;0.60;0.60;;;6.60;99.90;;;;;;5047624;28;20052;-89
2021/12/19 06:04:01;;;;;;;0.80;0.80;;;6.60;99.90;;;;;;5051169;28;20060;-90
2021/12/19 06:06:27;;;;;;;0.50;0.50;;;6.60;99.90;;;;;;5048307;28;20082;-88
2021/12/19 06:08:53;;;;;;;0.60;0.60;;;6.60;99.90;;;;;;5054074;28;20040;-88
2021/12/19 06:11:19;;;;;;;0.60;0.60;;;6.60;99.90;;;;;;5045193;28;20052;-89
2021/12/19 06:13:45;;;;;;;5.00;0.85;;;6.60;99.90;;;;;;5049574;28;20056;-89
2021/12/19 06:16:11;;;;;;;0.60;0.60;;;6.70;99.90;;;;;;5047713;28;20044;-88
2021/12/19 06:18:36;;;;;;;0.90;0.90;;;6.60;99.90;;;;;;5057967;28;20045;-89
2021/12/19 06:21:04;;;;;;;0.60;0.60;;;6.60;99.90;;;;;;5043158;28;20028;-88
2021/12/19 06:23:30;;;;;;;1.95;1.38;;;6.60;99.90;;;;;;5045612;28;20049;-89
2021/12/19 06:25:56;;;;;;;0.60;0.60;;;6.60;99.90;;;;;;5061960;28;20070;-89
2021/12/19 06:28:22;;;;;;;0.80;0.80;;;6.60;99.90;;;;;;5048523;28;20044;-89
2021/12/19 06:30:48;;;;;;;1.10;1.00;;;6.60;99.90;;;;;;5046451;28;20055;-88
2021/12/19 06:33:14;;;;;;;0.60;0.60;;;6.60;99.90;;;;;;5060863;28;20029;-90
2021/12/19 06:35:39;;;;;;;2.47;0.65;;;6.60;99.90;;;;;;5062223;28;20036;-87
2021/12/19 06:38:06;;;;;;;0.80;0.80;;;6.60;99.90;;;;;;5066126;28;20469;-85
2021/12/19 06:40:32;;;;;;;0.60;0.60;;;6.60;99.90;;;;;;5053585;28;20052;-87
2021/12/19 06:42:58;;;;;;;0.77;0.77;;;6.60;99.90;;;;;;5061659;28;20040;-88
2021/12/19 06:45:24;;;;;;;0.60;0.60;;;6.60;99.90;;;;;;5065699;28;20032;-87
2021/12/19 06:47:50;;;;;;;24.30;1.33;;;6.60;99.90;;;;;;5055404;28;20059;-89
2021/12/19 06:50:17;;;;;;;1.02;1.02;;;6.60;99.90;;;;;;5060050;28;20024;-90
2021/12/19 06:52:44;;;;;;;0.90;0.90;;;6.60;99.90;;;;;;5059661;28;20032;-90
2021/12/19 06:55:12;;;;;;;0.70;0.70;;;6.60;99.90;;;;;;5048443;28;20040;-89
2021/12/19 06:57:38;;;;;;;0.70;0.70;;;6.60;99.90;;;;;;5059690;28;20104;-88
2021/12/19 07:00:11;;;;;;;7.78;1.35;;;6.60;99.90;;;;;;5059746;28;20909;-89
2021/12/19 07:02:37;;;;;;;0.65;0.65;;;6.60;99.90;;;;;;5045178;28;20052;-89
2021/12/19 07:05:02;;;;;;;0.68;0.68;;;6.60;99.90;;;;;;5054775;28;20036;-89
2021/12/19 07:07:29;;;;;;;0.60;0.60;;;6.60;99.90;;;;;;5067493;28;20145;-90
2021/12/19 07:09:55;;;;;;;0.60;0.60;;;6.60;99.90;;;;;;5054923;28;20392;-89
2021/12/19 07:12:20;;;;;;;0.60;0.60;;;6.60;99.90;;;;;;5063859;28;20044;-89
2021/12/19 07:14:46;;;;;;;0.60;0.60;;;6.60;99.90;;;;;;5057198;28;20070;-89
2021/12/19 07:17:12;;;;;;;0.60;0.60;;;6.60;99.90;;;;;;5046859;28;20123;-88
2021/12/19 07:19:38;;;;;;;0.60;0.60;;;6.60;99.90;;;;;;5049317;28;20045;-89
2021/12/19 07:22:03;;;;;;;0.60;0.60;;;6.60;99.90;;;;;;5066521;28;20048;-89
2021/12/19 07:24:29;;;;;;;0.60;0.60;;;6.60;99.90;;;;;;5046998;28;20049;-89
2021/12/19 07:26:55;;;;;;;0.93;0.82;;;6.60;99.90;;;;;;5063520;28;20037;-89
2021/12/19 07:29:20;;;;;;;0.70;0.70;;;6.50;99.90;;;;;;5047789;28;20044;-89
2021/12/19 07:31:46;;;;;;;0.60;0.60;;;6.60;99.90;;;;;;5043273;28;20048;-89
2021/12/19 07:34:12;;;;;;;0.70;0.70;;;6.60;99.90;;;;;;5055136;28;20036;-89
2021/12/19 07:36:42;;;;;;;0.60;0.60;;;6.60;99.90;;;;;;5060896;28;20079;-88
2021/12/19 07:39:20;;;;;;;1.42;0.80;;;6.60;99.90;;;;;;5058620;28;20040;-89
2021/12/19 07:41:46;;;;;;;4.22;1.35;;;6.60;99.90;;;;;;5065997;28;20071;-89
2021/12/19 07:44:11;;;;;;;0.60;0.60;;;6.60;99.90;;;;;;5047160;28;20032;-89
2021/12/19 07:46:37;;;;;;;0.60;0.60;;;6.60;99.90;;;;;;5049905;28;20067;-88
2021/12/19 07:49:02;;;;;;;0.70;0.70;;;6.60;99.90;;;;;;5049822;28;20039;-89
2021/12/19 07:51:29;;;;;;;1.85;0.98;;;6.60;99.90;;;;;;5065561;28;20040;-88
2021/12/19 07:53:54;;;;;;;5.78;1.70;;;6.60;99.90;;;;;;5066556;28;20059;-89
2021/12/19 07:56:20;;;;;;;3.25;1.35;;;6.60;99.90;;;;;;5058063;28;20052;-88
2021/12/19 07:58:45;;;;;;;0.70;0.70;;;6.60;99.90;;;;;;5050585;28;20049;-89
2021/12/19 08:01:11;;;;;;;0.60;0.60;;;6.60;99.90;;;;;;5050324;28;20051;-89
2021/12/19 08:03:37;;;;;;;0.70;0.70;;;6.60;99.90;;;;;;5052067;28;20040;-89
2021/12/19 08:06:02;;;;;;;0.70;0.70;;;6.60;99.90;;;;;;5053829;28;20037;-89
2021/12/19 08:08:32;;;;;;;0.60;0.60;;;6.60;99.90;;;;;;5066806;28;20040;-88
2021/12/19 08:13:43;;;;;;;0.77;0.77;;;6.60;99.90;;;;;;5073511;28;20045;-89
2021/12/19 08:16:08;;;;;;;0.70;0.70;;;6.60;99.90;;;;;;5052155;28;20055;-88
2021/12/19 08:18:34;;;;;;;1.00;0.98;;;6.70;99.90;;;;;;5053270;28;20079;-88
2021/12/19 08:21:00;;;;;;;3.97;1.27;;;6.60;99.90;;;;;;5064574;28;20032;-88
2021/12/19 08:23:26;;;;;;;0.60;0.60;;;6.70;99.90;;;;;;5049882;28;20070;-89
2021/12/19 08:25:51;;;;;;;0.60;0.60;;;6.70;99.90;;;;;;5054814;28;20035;-89
2021/12/19 08:28:17;;;;;;;0.68;0.68;;;6.60;99.90;;;;;;5056126;28;20435;-88
2021/12/19 08:30:42;;;;;;;0.50;0.50;;;6.70;99.90;;;;;;5049540;28;20080;-89
2021/12/19 08:33:08;;;;;;;0.40;0.40;;;6.70;99.90;;;;;;5056038;28;20118;-89
2021/12/19 08:35:33;;;;;;;0.57;0.57;;;6.70;99.90;;;;;;5061160;28;20068;-89
2021/12/19 08:37:59;;;;;;;0.60;0.60;;;6.70;99.90;;;;;;5052371;28;20044;-89
2021/12/19 08:40:27;;;;;;;0.50;0.50;;;6.70;99.90;;;;;;5052823;28;20087;-89
2021/12/19 08:42:53;;;;;;;0.63;0.63;;;6.70;99.90;;;;;;5064774;28;20388;-88
2021/12/19 08:45:19;;;;;;;0.70;0.70;;;6.70;99.90;;;;;;5049379;28;20071;-89
2021/12/19 08:47:45;;;;;;;0.50;0.50;;;6.70;99.90;;;;;;5046721;28;20215;-88
2021/12/19 08:50:12;;;;;;;0.60;0.60;;;6.70;99.90;;;;;;5051383;28;20546;-88
2021/12/19 08:52:38;;;;;;;0.70;0.70;;;6.80;99.90;;;;;;5070339;28;20461;-89
2021/12/19 08:55:05;;;;;;;0.60;0.60;;;6.80;99.90;;;;;;5066671;28;20107;-89
2021/12/19 08:57:30;;;;;;;0.60;0.60;;;6.80;99.90;;;;;;5066275;28;20045;-88
2021/12/19 08:59:57;;;;;;;0.60;0.60;;;6.80;99.90;;;;;;5065274;28;20080;-88
2021/12/19 09:02:23;;;;;;;1.85;1.10;;;6.80;99.90;;;;;;5069199;28;20044;-87
2021/12/19 09:04:49;;;;;;;0.70;0.70;;;6.80;99.90;;;;;;5048787;28;20062;-89
2021/12/19 09:07:15;;;;;;;0.60;0.60;;;6.90;99.90;;;;;;5045793;28;20069;-87
2021/12/19 09:09:41;;;;;;;0.52;0.52;;;6.90;99.90;;;;;;5066114;28;20044;-88
2021/12/19 09:12:07;;;;;;;0.60;0.60;;;6.90;99.90;;;;;;5042103;28;20074;-87
2021/12/19 09:14:32;;;;;;;2.30;1.00;;;6.90;99.90;;;;;;5055866;28;20059;-86
2021/12/19 09:16:59;;;;;;;0.60;0.60;;;6.90;99.90;;;;;;5073167;28;20045;-88
2021/12/19 09:19:25;;;;;;;0.70;0.70;;;6.90;99.90;;;;;;5066424;28;20052;-88
2021/12/19 09:21:51;;;;;;;0.60;0.60;;;6.90;99.90;;;;;;5065591;28;20052;-89
2021/12/19 09:24:17;;;;;;;0.60;0.60;;;6.90;99.90;;;;;;5049860;28;20036;-88
2021/12/19 09:26:42;;;;;;;0.60;0.60;;;7.00;99.90;;;;;;5046173;28;20040;-88
2021/12/19 09:29:08;;;;;;;0.60;0.60;;;7.00;99.90;;;;;;5049304;28;20082;-89
2021/12/19 09:31:34;;;;;;;4.20;1.25;;;7.00;99.90;;;;;;5048195;28;20095;-89
2021/12/19 09:34:00;;;;;;;0.50;0.50;;;7.00;99.90;;;;;;5056606;28;20438;-89
2021/12/19 09:36:25;;;;;;;0.50;0.50;;;7.00;99.90;;;;;;5048853;28;20496;-89
2021/12/19 09:38:52;;;;;;;0.98;0.98;;;7.00;99.90;;;;;;5078349;28;20683;-88
2021/12/19 09:41:28;;;;;;;0.60;0.60;;;7.00;99.90;;;;;;5055855;28;20115;-89
2021/12/19 09:43:58;;;;;;;1.48;1.05;;;7.00;99.90;;;;;;5068979;28;20056;-88
2021/12/19 09:46:28;;;;;;;0.98;0.75;;;7.10;99.90;;;;;;5061559;28;20033;-89
2021/12/19 09:48:54;;;;;;;0.60;0.60;;;7.10;99.90;;;;;;5039586;28;20046;-89
2021/12/19 09:51:19;;;;;;;0.60;0.60;;;7.10;99.90;;;;;;5049190;28;20064;-89
2021/12/19 09:53:45;;;;;;;0.50;0.50;;;7.10;99.90;;;;;;5064861;28;20676;-90
2021/12/19 09:56:12;;;;;;;0.60;0.60;;;7.10;99.90;;;;;;5048888;28;20071;-89
2021/12/19 09:58:40;;;;;;;0.57;0.57;;;7.10;99.90;;;;;;5048522;28;20041;-89
2021/12/19 10:01:07;;;;;;;0.60;0.60;;;7.10;99.90;;;;;;5046894;28;20056;-88
2021/12/19 10:03:35;;;;;;;0.88;0.88;;;7.20;99.90;;;;;;5051289;28;20909;-88
2021/12/19 10:06:19;;;;;;;1.45;0.90;;;7.20;99.90;;;;;;5057382;28;20049;-88
2021/12/19 10:08:48;;;;;;;0.60;0.60;;;7.20;99.90;;;;;;5049740;28;20040;-88
2021/12/19 10:14:32;;;;;;;0.93;0.85;;;7.20;99.90;;;;;;5059981;28;20052;-89
2021/12/19 10:17:00;;;;;;;1.08;0.90;;;7.20;99.90;;;;;;5048869;28;20052;-89
2021/12/19 10:19:45;;;;;;;0.60;0.60;;;7.20;99.90;;;;;;5057555;28;20032;-88
2021/12/19 10:22:35;;;;;;;0.60;0.60;;;7.30;99.90;;;;;;5055424;28;20043;-89
2021/12/19 10:25:12;;;;;;;0.90;0.73;;;7.30;99.90;;;;;;5060222;28;20069;-89
2021/12/19 10:28:00;;;;;;;0.60;0.60;;;7.30;99.90;;;;;;5064974;28;20044;-89
2021/12/19 10:30:35;;;;;;;1.00;1.00;;;7.30;99.90;;;;;;5063762;28;20142;-89
2021/12/19 10:33:05;;;;;;;0.65;0.65;;;7.30;99.90;;;;;;5046947;28;20108;-88
2021/12/19 10:35:41;;;;;;;0.60;0.60;;;7.40;99.90;;;;;;5048986;28;20040;-87
2021/12/19 10:38:25;;;;;;;1.02;0.82;;;7.40;99.90;;;;;;5049091;28;20037;-89
2021/12/19 10:40:55;;;;;;;0.60;0.60;;;7.30;99.90;;;;;;5045047;28;20051;-88
2021/12/19 10:43:24;;;;;;;0.70;0.70;;;7.30;99.90;;;;;;5061965;28;20049;-88
2021/12/19 10:45:51;;;;;;;0.50;0.50;;;7.30;99.90;;;;;;5050215;28;20048;-87
2021/12/19 10:48:25;;;;;;;0.70;0.70;;;7.30;99.90;;;;;;5049209;28;20106;-89
2021/12/19 10:51:01;;;;;;;0.60;0.60;;;7.30;99.90;;;;;;5036175;28;20041;-88
2021/12/19 10:53:31;;;;;;;0.60;0.60;;;7.30;99.90;;;;;;5055284;28;20048;-89
2021/12/19 10:55:57;;;;;;;0.60;0.60;;;7.40;99.90;;;;;;5049263;28;20071;-88
2021/12/19 10:58:37;;;;;;;0.50;0.50;;;7.40;99.90;;;;;;5067160;28;20442;-88
2021/12/19 11:01:13;;;;;;;0.50;0.50;;;7.40;99.90;;;;;;5050994;28;20039;-88
2021/12/19 11:03:39;;;;;;;0.43;0.43;;;7.40;99.90;;;;;;5052754;28;20412;-87
2021/12/19 11:06:25;;;;;;;0.75;0.75;;;7.50;99.90;;;;;;5046453;28;20081;-89
2021/12/19 11:08:52;;;;;;;0.50;0.50;;;7.50;99.90;;;;;;5063602;28;20037;-88
2021/12/19 11:11:33;;;;;;;0.60;0.60;;;7.50;99.90;;;;;;5066038;28;20519;-88
2021/12/19 11:14:00;;;;;;;2.80;0.90;;;7.50;99.90;;;;;;5047515;28;20529;-89
2021/12/19 11:16:26;;;;;;;0.60;0.60;;;7.50;99.90;;;;;;5046670;28;20047;-89
2021/12/19 11:18:52;;;;;;;0.60;0.60;;;7.50;99.90;;;;;;5063388;28;20041;-89
2021/12/19 11:21:18;;;;;;;3.78;2.67;;;7.60;99.90;;;;;;5040785;28;20047;-89
2021/12/19 11:23:45;;;;;;;0.60;0.60;;;7.60;99.90;;;;;;5061807;28;20072;-88
2021/12/19 11:26:11;;;;;;;0.50;0.50;;;7.60;99.90;;;;;;5048439;28;20061;-89
2021/12/19 11:28:37;;;;;;;1.95;0.70;;;7.60;99.90;;;;;;5046796;28;20037;-88
2021/12/19 11:31:04;;;;;;;0.60;0.60;;;7.60;99.90;;;;;;5046110;28;20045;-89
2021/12/19 11:33:56;;;;;;;0.60;0.60;;;7.70;99.90;;;;;;5047318;28;20046;-89
2021/12/19 11:36:24;;;;;;;0.50;0.50;;;7.60;99.90;;;;;;5047016;28;20037;-89
2021/12/19 11:38:50;;;;;;;1.45;1.40;;;7.60;99.90;;;;;;5046558;28;20048;-88
2021/12/19 11:41:16;;;;;;;0.50;0.50;;;7.60;99.90;;;;;;5064648;28;20048;-89
2021/12/19 11:43:43;;;;;;;0.60;0.60;;;7.70;99.90;;;;;;5051798;28;20472;-88
2021/12/19 11:46:19;;;;;;;0.60;0.60;;;7.60;99.90;;;;;;5066370;28;20056;-88
2021/12/19 11:48:45;;;;;;;0.60;0.60;;;7.60;99.90;;;;;;5065833;28;20083;-87
2021/12/19 11:51:19;;;;;;;0.60;0.60;;;7.70;99.90;;;;;;5048758;28;20047;-89
2021/12/19 11:53:45;;;;;;;0.60;0.60;;;7.70;99.90;;;;;;5044448;28;20449;-89
2021/12/19 11:56:17;;;;;;;0.60;0.60;;;7.70;99.90;;;;;;5074000;28;20078;-89
2021/12/19 11:58:51;;;;;;;0.60;0.60;;;7.70;99.90;;;;;;5046886;28;20108;-88
2021/12/19 12:01:24;;;;;;;0.57;0.57;;;7.70;99.90;;;;;;5059608;28;20373;-88
2021/12/19 12:03:58;;;;;;;0.45;0.45;;;7.70;99.90;;;;;;5045868;28;20044;-88
2021/12/19 12:06:31;;;;;;;0.73;0.73;;;7.80;99.90;;;;;;5063324;28;20052;-88
2021/12/19 12:09:03;;;;;;;0.60;0.60;;;7.80;99.90;;;;;;5060740;28;20056;-86
2021/12/19 12:11:29;;;;;;;0.60;0.60;;;7.80;99.90;;;;;;5064806;28;20058;-86
2021/12/19 12:14:22;;;;;;;0.80;0.80;;;7.80;99.90;;;;;;5046021;28;20041;-88
2021/12/19 12:17:02;;;;;;;0.60;0.60;;;7.80;99.90;;;;;;5045502;28;20051;-88
2021/12/19 12:19:45;;;;;;;0.68;0.68;;;7.80;99.90;;;;;;5061928;28;20293;-89
2021/12/19 12:22:26;;;;;;;0.95;0.80;;;7.70;99.90;;;;;;5062160;28;20078;-89
2021/12/19 12:25:14;;;;;;;0.60;0.60;;;7.80;99.90;;;;;;5071519;28;20045;-89
2021/12/19 12:27:44;;;;;;;0.80;0.80;;;7.80;99.90;;;;;;5046460;28;20056;-88
2021/12/19 12:30:35;;;;;;;1.00;1.00;;;7.80;99.90;;;;;;5042081;28;20049;-87
2021/12/19 12:33:03;;;;;;;0.90;0.90;;;7.80;99.90;;;;;;5071972;28;20086;-88
2021/12/19 12:35:31;;;;;;;0.60;0.60;;;7.80;99.90;;;;;;5063829;28;20323;-89
2021/12/19 12:37:58;;;;;;;0.60;0.60;;;7.80;99.90;;;;;;5051574;28;20048;-89
2021/12/19 12:40:31;;;;;;;0.70;0.70;;;7.80;99.90;;;;;;5065247;28;20044;-89
2021/12/19 12:43:13;;;;;;;0.60;0.60;;;7.80;99.90;;;;;;5052713;28;20148;-89
2021/12/19 12:45:56;;;;;;;1.60;1.50;;;7.80;99.90;;;;;;5064236;28;20042;-88
2021/12/19 12:48:39;;;;;;;0.50;0.50;;;7.80;99.90;;;;;;5048196;28;20075;-89
2021/12/19 12:51:12;;;;;;;1.30;1.20;;;7.80;99.90;;;;;;5047284;28;20087;-89
2021/12/19 12:53:46;;;;;;;0.80;0.80;;;7.80;99.90;;;;;;5055615;28;20075;-88
2021/12/19 12:56:15;;;;;;;0.60;0.60;;;7.80;99.90;;;;;;5049302;28;20044;-87
2021/12/19 12:58:44;;;;;;;0.80;0.80;;;7.80;99.90;;;;;;5065005;28;20040;-90
2021/12/19 13:01:14;;;;;;;1.30;1.20;;;7.80;99.90;;;;;;5052666;28;20136;-90
2021/12/19 13:03:57;;;;;;;0.60;0.60;;;7.80;99.90;;;;;;5065816;28;20049;-90
2021/12/19 13:06:47;;;;;;;0.60;0.60;;;7.80;99.90;;;;;;5058701;28;20102;-88
2021/12/19 13:09:23;;;;;;;0.57;0.57;;;7.70;99.90;;;;;;5056636;28;20040;-88
2021/12/19 13:11:56;;;;;;;0.70;0.70;;;7.80;99.90;;;;;;5062925;28;20044;-88
2021/12/19 13:14:28;;;;;;;0.60;0.60;;;7.70;99.90;;;;;;5066018;28;20465;-88
2021/12/19 13:16:55;;;;;;;0.60;0.60;;;7.70;99.90;;;;;;5048250;28;20075;-88
2021/12/19 13:19:38;;;;;;;0.60;0.60;;;7.80;99.90;;;;;;5067876;28;20055;-88
2021/12/19 13:22:07;;;;;;;0.60;0.60;;;7.80;99.90;;;;;;5059335;28;20052;-88
2021/12/19 13:24:35;;;;;;;0.70;0.70;;;7.70;99.90;;;;;;5052879;28;20042;-88
2021/12/19 13:27:10;;;;;;;0.60;0.60;;;7.70;99.90;;;;;;5045007;28;20041;-88
2021/12/19 13:29:37;;;;;;;0.60;0.60;;;7.70;99.90;;;;;;5054635;28;20053;-88
2021/12/19 13:32:24;;;;;;;0.60;0.60;;;7.70;99.90;;;;;;5069786;28;20032;-88
2021/12/19 13:34:51;;;;;;;0.60;0.60;;;7.70;99.90;;;;;;5046522;28;20076;-87
2021/12/19 13:37:17;;;;;;;0.50;0.50;;;7.70;99.90;;;;;;5049495;28;20029;-87
2021/12/19 13:39:48;;;;;;;0.60;0.60;;;7.70;99.90;;;;;;5049363;28;20040;-88
2021/12/19 13:42:14;;;;;;;0.80;0.80;;;7.80;99.90;;;;;;5046521;28;20411;-87
2021/12/19 13:44:40;;;;;;;6.50;1.05;;;7.90;99.90;;;;;;5071040;28;20376;-89
2021/12/19 13:47:21;;;;;;;0.73;0.73;;;7.80;99.90;;;;;;5055055;28;20377;-89
2021/12/19 13:49:47;;;;;;;0.68;0.68;;;7.80;99.90;;;;;;5064451;28;20066;-89
2021/12/19 13:52:12;;;;;;;0.60;0.60;;;7.80;99.90;;;;;;5052225;28;20063;-89
2021/12/19 13:54:40;;;;;;;0.63;0.63;;;7.80;99.90;;;;;;5052122;28;20036;-88
2021/12/19 13:57:22;;;;;;;0.60;0.60;;;7.80;99.90;;;;;;5046073;28;20116;-89
2021/12/19 13:59:49;;;;;;;0.75;0.75;;;7.80;99.90;;;;;;5044876;28;20063;-89
2021/12/19 14:02:15;;;;;;;0.55;0.55;;;7.80;99.90;;;;;;5064199;28;20036;-89
2021/12/19 14:04:41;;;;;;;1.15;0.98;;;7.80;99.90;;;;;;5045528;28;20051;-88
2021/12/19 14:07:13;;;;;;;0.60;0.60;;;7.80;99.90;;;;;;5059581;28;20122;-89
2021/12/19 14:09:41;;;;;;;1.27;1.13;;;7.80;99.90;;;;;;5060078;28;20039;-89